Terminal Aerodrome Forecast
Issued by NWS Blacksburg, VA

Home | Current Version | Previous Version | Text Only | Print | Product List | Glossary On
Versions: 1 2 3 4 5 6 7 8 9 10 11 12 13 14 15 16 17 18 19 20 21 22 23 24 25 26 27 28 29 30 31
000
FTUS41 KRNK 252339
TAFBLF
TAF
KBLF 252339Z 2600/2624 00000KT P6SM SCT035 BKN150
     FM260600 05003KT P6SM -RA OVC035
     FM260800 02005KT 3SM -SN BR SCT007 OVC015
     FM261000 32004KT 2SM -SN BR OVC007
      TEMPO 2611/2615 1/2SM SN FG OVC004
     FM261800 31006KT 4SM BR SCT005 OVC012=

USA.gov is the U.S. government's official web portal to all federal, state and local government web resources and services.